sensor_id;sensor_type;location;lat;lon;timestamp;P1;durP1;ratioP1;P2;durP2;ratioP2
52744;SDS011;38637;49.984;20.426;2023-12-20T00:00:58;38.63;;;22.33;;
52744;SDS011;38637;49.984;20.426;2023-12-20T00:03:23;25.87;;;15.17;;
52744;SDS011;38637;49.984;20.426;2023-12-20T00:05:49;19.70;;;8.07;;
52744;SDS011;38637;49.984;20.426;2023-12-20T00:08:14;25.07;;;14.40;;
52744;SDS011;38637;49.984;20.426;2023-12-20T00:10:40;27.60;;;15.90;;
52744;SDS011;38637;49.984;20.426;2023-12-20T00:13:05;20.57;;;12.07;;
52744;SDS011;38637;49.984;20.426;2023-12-20T00:15:32;7.22;;;4.57;;
52744;SDS011;38637;49.984;20.426;2023-12-20T00:17:57;5.10;;;4.00;;
52744;SDS011;38637;49.984;20.426;2023-12-20T00:20:23;5.80;;;4.13;;
52744;SDS011;38637;49.984;20.426;2023-12-20T00:22:48;6.80;;;2.70;;
52744;SDS011;38637;49.984;20.426;2023-12-20T00:25:13;3.27;;;2.50;;
52744;SDS011;38637;49.984;20.426;2023-12-20T00:27:38;4.77;;;3.13;;
52744;SDS011;38637;49.984;20.426;2023-12-20T00:30:04;3.47;;;2.50;;
52744;SDS011;38637;49.984;20.426;2023-12-20T00:32:30;5.37;;;3.03;;
52744;SDS011;38637;49.984;20.426;2023-12-20T00:34:55;2.73;;;2.17;;
52744;SDS011;38637;49.984;20.426;2023-12-20T00:37:21;4.60;;;2.77;;
52744;SDS011;38637;49.984;20.426;2023-12-20T00:39:46;6.07;;;3.00;;
52744;SDS011;38637;49.984;20.426;2023-12-20T00:42:13;3.22;;;2.47;;
52744;SDS011;38637;49.984;20.426;2023-12-20T00:44:38;6.10;;;2.20;;
52744;SDS011;38637;49.984;20.426;2023-12-20T00:47:03;3.47;;;2.23;;
52744;SDS011;38637;49.984;20.426;2023-12-20T00:49:29;3.23;;;2.50;;
52744;SDS011;38637;49.984;20.426;2023-12-20T00:51:54;2.10;;;1.90;;
52744;SDS011;38637;49.984;20.426;2023-12-20T00:54:19;2.87;;;2.37;;
52744;SDS011;38637;49.984;20.426;2023-12-20T00:56:45;2.60;;;2.40;;
52744;SDS011;38637;49.984;20.426;2023-12-20T00:59:10;2.87;;;2.30;;
52744;SDS011;38637;49.984;20.426;2023-12-20T01:01:35;2.53;;;2.20;;
52744;SDS011;38637;49.984;20.426;2023-12-20T01:04:01;2.90;;;2.30;;
52744;SDS011;38637;49.984;20.426;2023-12-20T01:06:26;2.20;;;2.00;;
52744;SDS011;38637;49.984;20.426;2023-12-20T01:08:51;2.77;;;2.17;;
52744;SDS011;38637;49.984;20.426;2023-12-20T01:11:17;2.93;;;2.07;;
52744;SDS011;38637;49.984;20.426;2023-12-20T01:13:42;4.13;;;2.13;;
52744;SDS011;38637;49.984;20.426;2023-12-20T01:16:09;2.50;;;1.87;;
52744;SDS011;38637;49.984;20.426;2023-12-20T01:18:36;3.28;;;2.40;;
52744;SDS011;38637;49.984;20.426;2023-12-20T01:21:02;2.97;;;2.03;;
52744;SDS011;38637;49.984;20.426;2023-12-20T01:23:30;1.65;;;1.45;;
52744;SDS011;38637;49.984;20.426;2023-12-20T01:25:57;3.63;;;2.55;;
52744;SDS011;38637;49.984;20.426;2023-12-20T01:28:24;3.05;;;2.10;;
52744;SDS011;38637;49.984;20.426;2023-12-20T01:30:50;2.50;;;2.10;;
52744;SDS011;38637;49.984;20.426;2023-12-20T01:33:15;3.30;;;2.40;;
52744;SDS011;38637;49.984;20.426;2023-12-20T01:35:40;2.07;;;1.80;;
52744;SDS011;38637;49.984;20.426;2023-12-20T01:38:06;2.87;;;2.23;;
52744;SDS011;38637;49.984;20.426;2023-12-20T01:40:32;2.75;;;2.40;;
52744;SDS011;38637;49.984;20.426;2023-12-20T01:42:58;2.90;;;2.27;;
52744;SDS011;38637;49.984;20.426;2023-12-20T01:45:24;2.65;;;1.90;;
52744;SDS011;38637;49.984;20.426;2023-12-20T01:47:49;3.03;;;2.40;;
52744;SDS011;38637;49.984;20.426;2023-12-20T01:50:15;2.60;;;1.70;;
52744;SDS011;38637;49.984;20.426;2023-12-20T01:52:42;2.25;;;2.00;;
52744;SDS011;38637;49.984;20.426;2023-12-20T01:55:08;1.70;;;1.48;;
52744;SDS011;38637;49.984;20.426;2023-12-20T01:57:38;2.88;;;1.73;;
52744;SDS011;38637;49.984;20.426;2023-12-20T02:00:05;1.90;;;1.50;;
52744;SDS011;38637;49.984;20.426;2023-12-20T02:02:31;2.20;;;1.85;;
52744;SDS011;38637;49.984;20.426;2023-12-20T02:04:58;2.40;;;2.05;;
52744;SDS011;38637;49.984;20.426;2023-12-20T02:07:23;2.20;;;2.00;;
52744;SDS011;38637;49.984;20.426;2023-12-20T02:09:49;3.43;;;1.83;;
52744;SDS011;38637;49.984;20.426;2023-12-20T02:12:15;3.80;;;1.70;;
52744;SDS011;38637;49.984;20.426;2023-12-20T02:14:42;1.60;;;1.50;;
52744;SDS011;38637;49.984;20.426;2023-12-20T02:17:07;1.95;;;1.73;;
52744;SDS011;38637;49.984;20.426;2023-12-20T02:19:32;2.13;;;1.90;;
52744;SDS011;38637;49.984;20.426;2023-12-20T02:22:13;2.53;;;1.80;;
52744;SDS011;38637;49.984;20.426;2023-12-20T02:24:38;1.73;;;1.50;;
52744;SDS011;38637;49.984;20.426;2023-12-20T02:27:05;3.63;;;1.60;;
52744;SDS011;38637;49.984;20.426;2023-12-20T02:29:32;2.50;;;1.40;;
52744;SDS011;38637;49.984;20.426;2023-12-20T02:31:58;2.25;;;1.50;;
52744;SDS011;38637;49.984;20.426;2023-12-20T02:34:23;1.43;;;1.30;;
52744;SDS011;38637;49.984;20.426;2023-12-20T02:36:48;1.83;;;1.57;;
52744;SDS011;38637;49.984;20.426;2023-12-20T02:39:14;1.40;;;1.30;;
52744;SDS011;38637;49.984;20.426;2023-12-20T02:41:39;1.83;;;1.50;;
52744;SDS011;38637;49.984;20.426;2023-12-20T02:44:04;3.10;;;1.37;;
52744;SDS011;38637;49.984;20.426;2023-12-20T02:46:29;2.10;;;1.53;;
52744;SDS011;38637;49.984;20.426;2023-12-20T02:48:55;1.63;;;1.50;;
52744;SDS011;38637;49.984;20.426;2023-12-20T02:51:20;1.47;;;1.30;;
52744;SDS011;38637;49.984;20.426;2023-12-20T02:53:45;1.93;;;1.53;;
52744;SDS011;38637;49.984;20.426;2023-12-20T02:56:11;1.10;;;1.00;;
52744;SDS011;38637;49.984;20.426;2023-12-20T02:58:36;3.07;;;1.47;;
52744;SDS011;38637;49.984;20.426;2023-12-20T03:01:02;1.73;;;1.63;;
52744;SDS011;38637;49.984;20.426;2023-12-20T03:03:27;1.60;;;1.50;;
52744;SDS011;38637;49.984;20.426;2023-12-20T03:05:52;16.07;;;2.10;;
52744;SDS011;38637;49.984;20.426;2023-12-20T03:08:18;3.33;;;1.80;;
52744;SDS011;38637;49.984;20.426;2023-12-20T03:10:43;2.37;;;1.43;;
52744;SDS011;38637;49.984;20.426;2023-12-20T03:13:08;1.57;;;1.47;;
52744;SDS011;38637;49.984;20.426;2023-12-20T03:15:34;1.97;;;1.40;;
52744;SDS011;38637;49.984;20.426;2023-12-20T03:17:59;3.30;;;1.63;;
52744;SDS011;38637;49.984;20.426;2023-12-20T03:20:24;2.07;;;1.67;;
52744;SDS011;38637;49.984;20.426;2023-12-20T03:22:51;3.72;;;1.67;;
52744;SDS011;38637;49.984;20.426;2023-12-20T03:25:16;2.27;;;1.67;;
52744;SDS011;38637;49.984;20.426;2023-12-20T03:27:42;3.00;;;1.90;;
52744;SDS011;38637;49.984;20.426;2023-12-20T03:30:07;2.27;;;1.60;;
52744;SDS011;38637;49.984;20.426;2023-12-20T03:32:33;1.60;;;1.50;;
52744;SDS011;38637;49.984;20.426;2023-12-20T03:34:58;2.00;;;1.80;;
52744;SDS011;38637;49.984;20.426;2023-12-20T03:37:24;1.63;;;1.50;;
52744;SDS011;38637;49.984;20.426;2023-12-20T03:39:49;1.67;;;1.57;;
52744;SDS011;38637;49.984;20.426;2023-12-20T03:42:14;1.80;;;1.30;;
52744;SDS011;38637;49.984;20.426;2023-12-20T03:44:40;2.07;;;1.73;;
52744;SDS011;38637;49.984;20.426;2023-12-20T03:47:05;1.97;;;1.50;;
52744;SDS011;38637;49.984;20.426;2023-12-20T03:49:31;1.60;;;1.50;;
52744;SDS011;38637;49.984;20.426;2023-12-20T03:51:56;1.93;;;1.70;;
52744;SDS011;38637;49.984;20.426;2023-12-20T03:54:21;1.57;;;1.37;;
52744;SDS011;38637;49.984;20.426;2023-12-20T03:56:47;2.20;;;1.63;;
52744;SDS011;38637;49.984;20.426;2023-12-20T03:59:12;2.47;;;1.63;;
52744;SDS011;38637;49.984;20.426;2023-12-20T04:01:37;3.00;;;1.90;;
52744;SDS011;38637;49.984;20.426;2023-12-20T04:04:03;1.83;;;1.60;;
52744;SDS011;38637;49.984;20.426;2023-12-20T04:06:28;3.80;;;2.53;;
52744;SDS011;38637;49.984;20.426;2023-12-20T04:08:54;2.00;;;1.43;;
52744;SDS011;38637;49.984;20.426;2023-12-20T04:11:19;2.03;;;1.40;;
52744;SDS011;38637;49.984;20.426;2023-12-20T04:13:44;1.60;;;1.50;;
52744;SDS011;38637;49.984;20.426;2023-12-20T04:16:10;2.80;;;1.50;;
52744;SDS011;38637;49.984;20.426;2023-12-20T04:18:35;1.73;;;1.63;;
52744;SDS011;38637;49.984;20.426;2023-12-20T04:21:01;1.83;;;1.60;;
52744;SDS011;38637;49.984;20.426;2023-12-20T04:23:26;2.30;;;1.70;;
52744;SDS011;38637;49.984;20.426;2023-12-20T04:25:52;1.93;;;1.60;;
52744;SDS011;38637;49.984;20.426;2023-12-20T04:28:17;2.77;;;1.50;;
52744;SDS011;38637;49.984;20.426;2023-12-20T04:30:42;5.03;;;2.37;;
52744;SDS011;38637;49.984;20.426;2023-12-20T04:33:08;8.97;;;2.80;;
52744;SDS011;38637;49.984;20.426;2023-12-20T04:35:33;4.33;;;2.43;;
52744;SDS011;38637;49.984;20.426;2023-12-20T04:37:58;2.73;;;2.13;;
52744;SDS011;38637;49.984;20.426;2023-12-20T04:40:23;5.70;;;3.83;;
52744;SDS011;38637;49.984;20.426;2023-12-20T04:42:49;3.60;;;2.90;;
52744;SDS011;38637;49.984;20.426;2023-12-20T04:45:14;4.37;;;2.63;;
52744;SDS011;38637;49.984;20.426;2023-12-20T04:47:41;3.65;;;2.38;;
52744;SDS011;38637;49.984;20.426;2023-12-20T04:50:07;2.03;;;1.70;;
52744;SDS011;38637;49.984;20.426;2023-12-20T04:52:33;4.53;;;1.70;;
52744;SDS011;38637;49.984;20.426;2023-12-20T04:54:58;3.53;;;1.83;;
52744;SDS011;38637;49.984;20.426;2023-12-20T04:57:24;4.53;;;2.33;;
52744;SDS011;38637;49.984;20.426;2023-12-20T04:59:49;2.30;;;2.10;;
52744;SDS011;38637;49.984;20.426;2023-12-20T05:02:15;2.47;;;2.13;;
52744;SDS011;38637;49.984;20.426;2023-12-20T05:04:40;3.37;;;1.90;;
52744;SDS011;38637;49.984;20.426;2023-12-20T05:07:06;3.20;;;1.97;;
52744;SDS011;38637;49.984;20.426;2023-12-20T05:09:31;3.10;;;1.80;;
52744;SDS011;38637;49.984;20.426;2023-12-20T05:11:57;2.40;;;2.20;;
52744;SDS011;38637;49.984;20.426;2023-12-20T05:14:22;3.90;;;2.77;;
52744;SDS011;38637;49.984;20.426;2023-12-20T05:16:47;3.27;;;2.43;;
52744;SDS011;38637;49.984;20.426;2023-12-20T05:19:13;6.20;;;2.67;;
52744;SDS011;38637;49.984;20.426;2023-12-20T05:21:39;5.57;;;2.88;;
52744;SDS011;38637;49.984;20.426;2023-12-20T05:24:04;5.70;;;2.70;;
52744;SDS011;38637;49.984;20.426;2023-12-20T05:26:30;3.53;;;2.23;;
52744;SDS011;38637;49.984;20.426;2023-12-20T05:28:55;2.93;;;1.97;;
52744;SDS011;38637;49.984;20.426;2023-12-20T05:31:21;3.63;;;2.50;;
52744;SDS011;38637;49.984;20.426;2023-12-20T05:33:46;4.80;;;3.63;;
52744;SDS011;38637;49.984;20.426;2023-12-20T05:36:11;6.73;;;3.33;;
52744;SDS011;38637;49.984;20.426;2023-12-20T05:38:38;3.22;;;2.90;;
52744;SDS011;38637;49.984;20.426;2023-12-20T05:41:04;4.07;;;2.90;;
52744;SDS011;38637;49.984;20.426;2023-12-20T05:43:29;5.10;;;2.67;;
52744;SDS011;38637;49.984;20.426;2023-12-20T05:45:55;6.73;;;2.33;;
52744;SDS011;38637;49.984;20.426;2023-12-20T05:48:20;5.97;;;2.90;;
52744;SDS011;38637;49.984;20.426;2023-12-20T05:50:45;8.33;;;3.43;;
52744;SDS011;38637;49.984;20.426;2023-12-20T05:53:10;6.90;;;3.70;;
52744;SDS011;38637;49.984;20.426;2023-12-20T05:55:36;3.90;;;3.27;;
52744;SDS011;38637;49.984;20.426;2023-12-20T05:58:01;3.97;;;3.47;;
52744;SDS011;38637;49.984;20.426;2023-12-20T06:00:26;6.53;;;4.90;;
52744;SDS011;38637;49.984;20.426;2023-12-20T06:02:52;5.70;;;4.37;;
52744;SDS011;38637;49.984;20.426;2023-12-20T06:05:17;4.63;;;3.50;;
52744;SDS011;38637;49.984;20.426;2023-12-20T06:07:43;11.83;;;4.50;;
52744;SDS011;38637;49.984;20.426;2023-12-20T06:12:35;8.90;;;5.32;;
52744;SDS011;38637;49.984;20.426;2023-12-20T06:15:01;12.02;;;6.13;;
52744;SDS011;38637;49.984;20.426;2023-12-20T06:17:27;11.45;;;7.95;;
52744;SDS011;38637;49.984;20.426;2023-12-20T06:19:55;6.88;;;5.45;;
52744;SDS011;38637;49.984;20.426;2023-12-20T06:22:20;8.93;;;4.47;;
52744;SDS011;38637;49.984;20.426;2023-12-20T06:24:45;6.33;;;4.00;;
52744;SDS011;38637;49.984;20.426;2023-12-20T06:27:11;7.20;;;3.47;;
52744;SDS011;38637;49.984;20.426;2023-12-20T06:29:36;6.77;;;3.20;;
52744;SDS011;38637;49.984;20.426;2023-12-20T06:32:01;5.67;;;3.37;;
52744;SDS011;38637;49.984;20.426;2023-12-20T06:34:27;5.77;;;3.67;;
52744;SDS011;38637;49.984;20.426;2023-12-20T06:36:52;6.37;;;1.80;;
52744;SDS011;38637;49.984;20.426;2023-12-20T06:39:17;6.00;;;3.60;;
52744;SDS011;38637;49.984;20.426;2023-12-20T06:41:43;4.60;;;3.00;;
52744;SDS011;38637;49.984;20.426;2023-12-20T06:44:08;4.20;;;2.67;;
52744;SDS011;38637;49.984;20.426;2023-12-20T06:46:34;4.03;;;2.70;;
52744;SDS011;38637;49.984;20.426;2023-12-20T06:49:00;5.43;;;2.72;;
52744;SDS011;38637;49.984;20.426;2023-12-20T06:51:25;5.63;;;2.77;;
52744;SDS011;38637;49.984;20.426;2023-12-20T06:53:53;5.50;;;2.73;;
52744;SDS011;38637;49.984;20.426;2023-12-20T06:56:19;2.92;;;2.42;;
52744;SDS011;38637;49.984;20.426;2023-12-20T06:58:44;3.13;;;2.70;;
52744;SDS011;38637;49.984;20.426;2023-12-20T07:01:11;6.97;;;2.90;;
52744;SDS011;38637;49.984;20.426;2023-12-20T07:03:39;4.10;;;2.35;;
52744;SDS011;38637;49.984;20.426;2023-12-20T07:06:05;3.00;;;2.40;;
52744;SDS011;38637;49.984;20.426;2023-12-20T07:08:30;4.63;;;2.97;;
52744;SDS011;38637;49.984;20.426;2023-12-20T07:10:55;4.10;;;3.03;;
52744;SDS011;38637;49.984;20.426;2023-12-20T07:13:21;4.73;;;3.20;;
52744;SDS011;38637;49.984;20.426;2023-12-20T07:15:47;13.27;;;3.22;;
52744;SDS011;38637;49.984;20.426;2023-12-20T07:18:13;3.20;;;2.90;;
52744;SDS011;38637;49.984;20.426;2023-12-20T07:20:38;4.47;;;3.23;;
52744;SDS011;38637;49.984;20.426;2023-12-20T07:23:04;7.13;;;3.80;;
52744;SDS011;38637;49.984;20.426;2023-12-20T07:25:29;6.00;;;4.43;;
52744;SDS011;38637;49.984;20.426;2023-12-20T07:27:57;5.30;;;4.57;;
52744;SDS011;38637;49.984;20.426;2023-12-20T07:30:25;5.25;;;4.30;;
52744;SDS011;38637;49.984;20.426;2023-12-20T07:32:51;5.50;;;3.80;;
52744;SDS011;38637;49.984;20.426;2023-12-20T07:35:17;6.38;;;3.55;;
52744;SDS011;38637;49.984;20.426;2023-12-20T07:37:42;4.27;;;3.20;;
52744;SDS011;38637;49.984;20.426;2023-12-20T07:40:08;4.87;;;3.30;;
52744;SDS011;38637;49.984;20.426;2023-12-20T07:42:33;4.57;;;3.97;;
52744;SDS011;38637;49.984;20.426;2023-12-20T07:44:59;4.53;;;3.63;;
52744;SDS011;38637;49.984;20.426;2023-12-20T07:47:24;12.20;;;6.00;;
52744;SDS011;38637;49.984;20.426;2023-12-20T07:49:50;14.77;;;11.07;;
52744;SDS011;38637;49.984;20.426;2023-12-20T07:52:17;21.52;;;14.85;;
52744;SDS011;38637;49.984;20.426;2023-12-20T07:54:43;27.20;;;18.17;;
52744;SDS011;38637;49.984;20.426;2023-12-20T07:57:10;33.77;;;20.70;;
52744;SDS011;38637;49.984;20.426;2023-12-20T07:59:35;22.77;;;16.80;;
52744;SDS011;38637;49.984;20.426;2023-12-20T08:02:01;16.17;;;10.83;;
52744;SDS011;38637;49.984;20.426;2023-12-20T08:04:26;23.63;;;17.53;;
52744;SDS011;38637;49.984;20.426;2023-12-20T08:06:52;30.23;;;19.40;;
52744;SDS011;38637;49.984;20.426;2023-12-20T08:09:17;21.57;;;15.20;;
52744;SDS011;38637;49.984;20.426;2023-12-20T08:11:46;13.97;;;10.33;;
52744;SDS011;38637;49.984;20.426;2023-12-20T08:14:12;11.73;;;9.82;;
52744;SDS011;38637;49.984;20.426;2023-12-20T08:16:37;15.47;;;5.00;;
52744;SDS011;38637;49.984;20.426;2023-12-20T08:19:03;8.07;;;6.97;;
52744;SDS011;38637;49.984;20.426;2023-12-20T08:21:28;12.07;;;7.13;;
52744;SDS011;38637;49.984;20.426;2023-12-20T08:23:53;8.53;;;5.43;;
52744;SDS011;38637;49.984;20.426;2023-12-20T08:26:19;12.70;;;8.20;;
52744;SDS011;38637;49.984;20.426;2023-12-20T08:28:46;9.05;;;6.45;;
52744;SDS011;38637;49.984;20.426;2023-12-20T08:31:15;7.57;;;6.10;;
52744;SDS011;38637;49.984;20.426;2023-12-20T08:36:08;5.38;;;4.88;;
52744;SDS011;38637;49.984;20.426;2023-12-20T08:38:34;5.53;;;4.87;;
52744;SDS011;38637;49.984;20.426;2023-12-20T08:40:59;8.07;;;6.57;;
52744;SDS011;38637;49.984;20.426;2023-12-20T08:43:24;12.33;;;8.17;;
52744;SDS011;38637;49.984;20.426;2023-12-20T08:45:50;11.37;;;8.70;;
52744;SDS011;38637;49.984;20.426;2023-12-20T08:48:15;8.33;;;5.00;;
52744;SDS011;38637;49.984;20.426;2023-12-20T08:50:40;7.87;;;4.93;;
52744;SDS011;38637;49.984;20.426;2023-12-20T08:53:06;8.60;;;6.33;;
52744;SDS011;38637;49.984;20.426;2023-12-20T08:55:31;6.83;;;5.10;;
52744;SDS011;38637;49.984;20.426;2023-12-20T08:57:57;5.00;;;3.57;;
52744;SDS011;38637;49.984;20.426;2023-12-20T09:00:23;6.15;;;4.88;;
52744;SDS011;38637;49.984;20.426;2023-12-20T09:02:52;6.95;;;5.05;;
52744;SDS011;38637;49.984;20.426;2023-12-20T09:05:17;6.53;;;5.93;;
52744;SDS011;38637;49.984;20.426;2023-12-20T09:07:43;6.27;;;4.97;;
52744;SDS011;38637;49.984;20.426;2023-12-20T09:10:08;6.00;;;5.07;;
52744;SDS011;38637;49.984;20.426;2023-12-20T09:12:33;7.17;;;5.10;;
52744;SDS011;38637;49.984;20.426;2023-12-20T09:14:59;6.90;;;5.03;;
52744;SDS011;38637;49.984;20.426;2023-12-20T09:17:27;5.78;;;4.10;;
52744;SDS011;38637;49.984;20.426;2023-12-20T09:19:52;5.60;;;4.37;;
52744;SDS011;38637;49.984;20.426;2023-12-20T09:22:19;6.10;;;4.55;;
52744;SDS011;38637;49.984;20.426;2023-12-20T09:24:44;6.27;;;4.57;;
52744;SDS011;38637;49.984;20.426;2023-12-20T09:27:10;6.83;;;5.77;;
52744;SDS011;38637;49.984;20.426;2023-12-20T09:29:35;5.30;;;4.53;;
52744;SDS011;38637;49.984;20.426;2023-12-20T09:32:00;4.70;;;3.67;;
52744;SDS011;38637;49.984;20.426;2023-12-20T09:34:26;6.53;;;5.73;;
52744;SDS011;38637;49.984;20.426;2023-12-20T09:36:52;7.95;;;4.40;;
52744;SDS011;38637;49.984;20.426;2023-12-20T09:39:18;5.63;;;5.07;;
52744;SDS011;38637;49.984;20.426;2023-12-20T09:41:46;5.95;;;5.38;;
52744;SDS011;38637;49.984;20.426;2023-12-20T09:44:25;6.32;;;5.72;;
52744;SDS011;38637;49.984;20.426;2023-12-20T09:46:51;6.80;;;4.50;;
52744;SDS011;38637;49.984;20.426;2023-12-20T09:49:19;6.05;;;5.50;;
52744;SDS011;38637;49.984;20.426;2023-12-20T09:51:46;6.13;;;4.35;;
52744;SDS011;38637;49.984;20.426;2023-12-20T09:54:15;7.72;;;4.90;;
52744;SDS011;38637;49.984;20.426;2023-12-20T09:56:42;5.85;;;4.22;;
52744;SDS011;38637;49.984;20.426;2023-12-20T09:59:08;4.27;;;3.77;;
52744;SDS011;38637;49.984;20.426;2023-12-20T10:01:33;6.27;;;4.60;;
52744;SDS011;38637;49.984;20.426;2023-12-20T10:03:59;6.22;;;4.55;;
52744;SDS011;38637;49.984;20.426;2023-12-20T10:06:25;5.38;;;4.78;;
52744;SDS011;38637;49.984;20.426;2023-12-20T10:08:51;4.73;;;4.30;;
52744;SDS011;38637;49.984;20.426;2023-12-20T10:11:17;7.50;;;6.55;;
52744;SDS011;38637;49.984;20.426;2023-12-20T10:13:44;7.70;;;5.25;;
52744;SDS011;38637;49.984;20.426;2023-12-20T10:16:12;9.18;;;6.78;;
52744;SDS011;38637;49.984;20.426;2023-12-20T10:18:38;6.53;;;5.90;;
52744;SDS011;38637;49.984;20.426;2023-12-20T10:21:04;8.15;;;6.60;;
52744;SDS011;38637;49.984;20.426;2023-12-20T10:23:29;9.93;;;7.03;;
52744;SDS011;38637;49.984;20.426;2023-12-20T10:25:59;8.45;;;6.18;;
52744;SDS011;38637;49.984;20.426;2023-12-20T10:28:25;10.38;;;9.00;;
52744;SDS011;38637;49.984;20.426;2023-12-20T10:30:54;9.93;;;8.35;;
52744;SDS011;38637;49.984;20.426;2023-12-20T10:33:25;7.07;;;6.35;;
52744;SDS011;38637;49.984;20.426;2023-12-20T10:35:52;10.98;;;8.75;;
52744;SDS011;38637;49.984;20.426;2023-12-20T10:38:18;13.15;;;9.98;;
52744;SDS011;38637;49.984;20.426;2023-12-20T10:40:43;9.27;;;7.73;;
52744;SDS011;38637;49.984;20.426;2023-12-20T10:43:10;9.88;;;7.70;;
52744;SDS011;38637;49.984;20.426;2023-12-20T10:45:36;4.90;;;4.40;;
52744;SDS011;38637;49.984;20.426;2023-12-20T10:48:02;8.70;;;4.03;;
52744;SDS011;38637;49.984;20.426;2023-12-20T10:50:28;13.05;;;8.98;;
52744;SDS011;38637;49.984;20.426;2023-12-20T10:55:21;9.60;;;8.73;;
52744;SDS011;38637;49.984;20.426;2023-12-20T11:00:16;17.80;;;16.40;;
52744;SDS011;38637;49.984;20.426;2023-12-20T11:05:19;5.63;;;5.13;;
52744;SDS011;38637;49.984;20.426;2023-12-20T11:07:55;5.13;;;2.83;;
52744;SDS011;38637;49.984;20.426;2023-12-20T11:10:33;5.05;;;4.55;;
52744;SDS011;38637;49.984;20.426;2023-12-20T11:13:12;5.70;;;5.22;;
52744;SDS011;38637;49.984;20.426;2023-12-20T11:15:42;5.35;;;4.95;;
52744;SDS011;38637;49.984;20.426;2023-12-20T11:18:08;4.47;;;4.17;;
52744;SDS011;38637;49.984;20.426;2023-12-20T11:20:40;5.17;;;4.67;;
52744;SDS011;38637;49.984;20.426;2023-12-20T11:23:07;9.23;;;8.27;;
52744;SDS011;38637;49.984;20.426;2023-12-20T11:25:45;4.38;;;3.53;;
52744;SDS011;38637;49.984;20.426;2023-12-20T11:28:11;12.85;;;9.43;;
52744;SDS011;38637;49.984;20.426;2023-12-20T11:30:41;5.47;;;4.97;;
52744;SDS011;38637;49.984;20.426;2023-12-20T11:33:15;5.57;;;3.35;;
52744;SDS011;38637;49.984;20.426;2023-12-20T11:35:41;3.85;;;2.85;;
52744;SDS011;38637;49.984;20.426;2023-12-20T11:38:08;11.75;;;10.98;;
52744;SDS011;38637;49.984;20.426;2023-12-20T11:40:34;3.38;;;3.15;;
52744;SDS011;38637;49.984;20.426;2023-12-20T11:43:01;2.65;;;1.55;;
52744;SDS011;38637;49.984;20.426;2023-12-20T11:45:26;5.40;;;5.10;;
52744;SDS011;38637;49.984;20.426;2023-12-20T11:47:52;2.10;;;1.30;;
52744;SDS011;38637;49.984;20.426;2023-12-20T11:50:20;9.38;;;8.77;;
52744;SDS011;38637;49.984;20.426;2023-12-20T11:52:48;4.57;;;4.20;;
52744;SDS011;38637;49.984;20.426;2023-12-20T11:55:14;3.00;;;2.65;;
52744;SDS011;38637;49.984;20.426;2023-12-20T11:57:39;2.50;;;2.17;;
52744;SDS011;38637;49.984;20.426;2023-12-20T12:00:05;2.53;;;2.20;;
52744;SDS011;38637;49.984;20.426;2023-12-20T12:02:31;3.13;;;2.75;;
52744;SDS011;38637;49.984;20.426;2023-12-20T12:04:57;4.47;;;4.07;;
52744;SDS011;38637;49.984;20.426;2023-12-20T12:07:23;4.38;;;3.78;;
52744;SDS011;38637;49.984;20.426;2023-12-20T12:09:49;2.77;;;2.57;;
52744;SDS011;38637;49.984;20.426;2023-12-20T12:12:14;3.13;;;2.93;;
52744;SDS011;38637;49.984;20.426;2023-12-20T12:14:40;3.73;;;3.43;;
52744;SDS011;38637;49.984;20.426;2023-12-20T12:17:12;3.30;;;2.03;;
52744;SDS011;38637;49.984;20.426;2023-12-20T12:19:38;2.90;;;2.55;;
52744;SDS011;38637;49.984;20.426;2023-12-20T12:22:08;2.75;;;2.47;;
52744;SDS011;38637;49.984;20.426;2023-12-20T12:24:42;5.32;;;4.93;;
52744;SDS011;38637;49.984;20.426;2023-12-20T12:27:09;2.38;;;2.17;;
52744;SDS011;38637;49.984;20.426;2023-12-20T12:29:35;3.55;;;2.88;;
52744;SDS011;38637;49.984;20.426;2023-12-20T12:32:04;5.30;;;4.63;;
52744;SDS011;38637;49.984;20.426;2023-12-20T12:34:31;3.15;;;2.80;;
52744;SDS011;38637;49.984;20.426;2023-12-20T12:36:57;9.17;;;4.17;;
52744;SDS011;38637;49.984;20.426;2023-12-20T12:39:23;3.80;;;3.50;;
52744;SDS011;38637;49.984;20.426;2023-12-20T12:41:52;3.70;;;3.40;;
52744;SDS011;38637;49.984;20.426;2023-12-20T12:44:17;3.20;;;2.90;;
52744;SDS011;38637;49.984;20.426;2023-12-20T12:46:44;6.00;;;5.47;;
52744;SDS011;38637;49.984;20.426;2023-12-20T12:49:10;4.90;;;4.40;;
52744;SDS011;38637;49.984;20.426;2023-12-20T12:51:36;4.37;;;3.97;;
52744;SDS011;38637;49.984;20.426;2023-12-20T12:54:01;5.13;;;4.67;;
52744;SDS011;38637;49.984;20.426;2023-12-20T12:56:27;2.93;;;2.73;;
52744;SDS011;38637;49.984;20.426;2023-12-20T12:58:52;3.47;;;3.17;;
52744;SDS011;38637;49.984;20.426;2023-12-20T13:01:18;4.87;;;2.83;;
52744;SDS011;38637;49.984;20.426;2023-12-20T13:03:43;3.53;;;3.30;;
52744;SDS011;38637;49.984;20.426;2023-12-20T13:06:08;2.23;;;2.10;;
52744;SDS011;38637;49.984;20.426;2023-12-20T13:08:34;4.32;;;3.97;;
52744;SDS011;38637;49.984;20.426;2023-12-20T13:11:00;3.07;;;2.77;;
52744;SDS011;38637;49.984;20.426;2023-12-20T13:13:26;3.60;;;3.00;;
52744;SDS011;38637;49.984;20.426;2023-12-20T13:15:52;4.80;;;2.65;;
52744;SDS011;38637;49.984;20.426;2023-12-20T13:18:20;2.13;;;1.92;;
52744;SDS011;38637;49.984;20.426;2023-12-20T13:20:48;4.57;;;4.18;;
52744;SDS011;38637;49.984;20.426;2023-12-20T13:23:14;3.50;;;3.20;;
52744;SDS011;38637;49.984;20.426;2023-12-20T13:25:40;3.63;;;3.07;;
52744;SDS011;38637;49.984;20.426;2023-12-20T13:28:06;2.50;;;2.13;;
52744;SDS011;38637;49.984;20.426;2023-12-20T13:30:32;3.87;;;3.47;;
52744;SDS011;38637;49.984;20.426;2023-12-20T13:32:57;3.90;;;3.70;;
52744;SDS011;38637;49.984;20.426;2023-12-20T13:35:22;3.90;;;3.43;;
52744;SDS011;38637;49.984;20.426;2023-12-20T13:37:50;4.05;;;3.83;;
52744;SDS011;38637;49.984;20.426;2023-12-20T13:40:15;2.80;;;2.60;;
52744;SDS011;38637;49.984;20.426;2023-12-20T13:42:41;2.67;;;2.47;;
52744;SDS011;38637;49.984;20.426;2023-12-20T13:45:06;2.70;;;2.03;;
52744;SDS011;38637;49.984;20.426;2023-12-20T13:47:32;3.47;;;2.53;;
52744;SDS011;38637;49.984;20.426;2023-12-20T13:49:58;2.30;;;2.10;;
52744;SDS011;38637;49.984;20.426;2023-12-20T13:52:24;3.80;;;2.87;;
52744;SDS011;38637;49.984;20.426;2023-12-20T13:54:49;5.80;;;5.00;;
52744;SDS011;38637;49.984;20.426;2023-12-20T13:57:14;4.00;;;3.60;;
52744;SDS011;38637;49.984;20.426;2023-12-20T13:59:40;4.03;;;3.63;;
52744;SDS011;38637;49.984;20.426;2023-12-20T14:02:05;5.93;;;5.47;;
52744;SDS011;38637;49.984;20.426;2023-12-20T14:04:30;192.30;;;20.00;;
52744;SDS011;38637;49.984;20.426;2023-12-20T14:06:56;4.90;;;4.50;;
52744;SDS011;38637;49.984;20.426;2023-12-20T14:09:22;2.90;;;2.53;;
52744;SDS011;38637;49.984;20.426;2023-12-20T14:11:47;6.10;;;5.50;;
52744;SDS011;38637;49.984;20.426;2023-12-20T14:14:12;5.83;;;4.67;;
52744;SDS011;38637;49.984;20.426;2023-12-20T14:16:38;5.90;;;4.23;;
52744;SDS011;38637;49.984;20.426;2023-12-20T14:19:03;5.27;;;4.87;;
52744;SDS011;38637;49.984;20.426;2023-12-20T14:23:55;4.60;;;4.00;;
52744;SDS011;38637;49.984;20.426;2023-12-20T14:26:20;9.03;;;8.33;;
52744;SDS011;38637;49.984;20.426;2023-12-20T14:28:46;14.30;;;6.97;;
52744;SDS011;38637;49.984;20.426;2023-12-20T14:31:11;6.90;;;5.20;;
52744;SDS011;38637;49.984;20.426;2023-12-20T14:33:37;6.23;;;4.70;;
52744;SDS011;38637;49.984;20.426;2023-12-20T14:36:04;5.82;;;5.32;;
52744;SDS011;38637;49.984;20.426;2023-12-20T14:38:30;5.75;;;4.80;;
52744;SDS011;38637;49.984;20.426;2023-12-20T14:40:56;5.63;;;4.68;;